Terminal Aerodrome Forecast
Issued by NWS Grand Rapids, MI

Home | Current Version | Previous Version | Text Only | Print | Product List | Glossary On
Versions: 1 2 3 4 5 6 7 8 9 10 11 12 13 14 15 16 17 18 19 20 21 22 23 24 25 26 27 28 29
000
FTUS43 KGRR 231247 AAB
TAFGRR
TAF AMD
KGRR 231247Z 2313/2412 00000KT 1/2SM FG OVC002
     FM231315 00000KT 1SM BR BKN003
     FM231330 00000KT P6SM BKN250
     FM240900 00000KT 1SM BR FEW140=

USA.gov is the U.S. government's official web portal to all federal, state and local government web resources and services.